createdAt,value
2018-01-04T00:01:26.076Z,3.47
2018-01-04T00:03:52.329Z,4.67
2018-01-04T00:06:18.468Z,3.10
2018-01-04T00:08:44.640Z,4.00
2018-01-04T00:11:10.855Z,5.20
2018-01-04T00:13:37.768Z,3.60
2018-01-04T00:16:03.941Z,3.70
2018-01-04T00:18:31.700Z,2.80
2018-01-04T00:20:57.883Z,2.83
2018-01-04T00:23:24.068Z,3.83
2018-01-04T00:25:51.023Z,3.00
2018-01-04T00:28:17.947Z,4.23
2018-01-04T00:30:44.944Z,4.60
2018-01-04T00:33:11.159Z,5.27
2018-01-04T00:35:38.073Z,3.70
2018-01-04T00:38:04.252Z,3.60
2018-01-04T00:40:30.469Z,3.47
2018-01-04T00:42:57.405Z,3.40
2018-01-04T00:45:23.592Z,3.73
2018-01-04T00:47:49.794Z,3.50
2018-01-04T00:50:16.740Z,3.73
2018-01-04T00:52:43.658Z,4.17
2018-01-04T00:55:09.869Z,3.60
2018-01-04T00:57:36.111Z,4.20
2018-01-04T01:00:02.321Z,3.63
2018-01-04T01:02:28.532Z,4.00
2018-01-04T01:04:55.455Z,3.57
2018-01-04T01:07:21.620Z,3.33
2018-01-04T01:09:49.450Z,3.70
2018-01-04T01:12:15.640Z,2.90
2018-01-04T01:14:41.838Z,3.60
2018-01-04T01:17:08.797Z,3.80
2018-01-04T01:19:35.728Z,3.90
2018-01-04T01:22:01.908Z,3.57
2018-01-04T01:24:28.092Z,3.53
2018-01-04T01:26:54.275Z,6.00
2018-01-04T01:29:21.213Z,3.73
2018-01-04T01:31:48.419Z,4.10
2018-01-04T01:34:14.629Z,2.97
2018-01-04T01:36:40.803Z,2.80
2018-01-04T01:39:07.020Z,3.80
2018-01-04T01:41:33.240Z,3.57
2018-01-04T01:43:59.431Z,3.13
2018-01-04T01:46:27.179Z,3.53
2018-01-04T01:49:05.865Z,3.57
2018-01-04T01:51:32.077Z,2.93
2018-01-04T01:53:58.253Z,2.73
2018-01-04T01:56:24.464Z,3.77
2018-01-04T01:58:51.636Z,3.83
2018-01-04T02:01:17.828Z,3.80
2018-01-04T02:03:44.740Z,3.40
2018-01-04T02:06:11.712Z,3.83
2018-01-04T02:08:38.632Z,3.87
2018-01-04T02:11:04.840Z,3.40
2018-01-04T02:13:31.066Z,3.33
2018-01-04T02:15:57.262Z,2.13
2018-01-04T02:21:37.008Z,1.53
2018-01-04T02:27:14.032Z,2.80
2018-01-04T02:29:52.527Z,1.90
2018-01-04T02:32:31.091Z,2.93
2018-01-04T02:35:09.542Z,2.93
2018-01-04T02:37:48.716Z,3.07
2018-01-04T02:40:27.336Z,3.63
2018-01-04T02:43:05.816Z,4.00
2018-01-04T02:45:54.915Z,3.40
2018-01-04T02:48:21.088Z,3.13
2018-01-04T02:50:48.011Z,2.70
2018-01-04T02:53:14.229Z,1.80
2018-01-04T02:55:40.420Z,2.20
2018-01-04T02:58:06.615Z,1.20
2018-01-04T03:00:33.773Z,1.10
2018-01-04T03:03:00.713Z,1.20
2018-01-04T03:05:26.888Z,2.73
2018-01-04T03:07:53.112Z,0.63
2018-01-04T03:10:20.020Z,1.10
2018-01-04T03:12:46.202Z,0.87
2018-01-04T03:15:13.128Z,0.67
2018-01-04T03:17:39.301Z,1.07
2018-01-04T03:20:05.476Z,1.00
2018-01-04T03:22:37.683Z,2.00
2018-01-04T03:28:14.824Z,1.60
2018-01-04T03:30:47.221Z,1.90
2018-01-04T03:33:19.695Z,2.17
2018-01-04T03:35:52.008Z,2.00
2018-01-04T03:38:24.332Z,2.13
2018-01-04T03:40:56.695Z,1.77
2018-01-04T03:43:29.064Z,1.87
2018-01-04T03:46:01.353Z,1.90
2018-01-04T03:48:27.549Z,1.90
2018-01-04T03:50:59.741Z,2.13
2018-01-04T03:53:32.048Z,2.40
2018-01-04T03:56:04.456Z,2.40
2018-01-04T03:58:36.875Z,3.93
2018-01-04T04:01:11.124Z,2.70
2018-01-04T04:03:38.058Z,3.30
2018-01-04T04:06:10.342Z,2.70
2018-01-04T04:08:43.402Z,2.30
2018-01-04T04:11:09.608Z,4.23
2018-01-04T04:13:35.799Z,2.37
2018-01-04T04:16:02.012Z,2.23
2018-01-04T04:18:28.253Z,1.80
2018-01-04T04:20:54.413Z,2.50
2018-01-04T04:23:21.341Z,2.30
2018-01-04T04:25:47.523Z,2.40
2018-01-04T04:28:13.695Z,2.43
2018-01-04T04:30:39.920Z,2.57
2018-01-04T04:33:06.144Z,2.60
2018-01-04T04:35:32.352Z,1.87
2018-01-04T04:37:58.566Z,3.33
2018-01-04T04:40:24.739Z,2.00
2018-01-04T04:42:50.910Z,2.13
2018-01-04T04:45:17.115Z,2.80
2018-01-04T04:47:43.292Z,2.57
2018-01-04T04:50:09.494Z,2.73
2018-01-04T04:52:35.726Z,2.40
2018-01-04T04:55:01.907Z,2.00
2018-01-04T04:57:28.840Z,2.10
2018-01-04T04:59:55.988Z,2.17
2018-01-04T05:02:22.268Z,2.90
2018-01-04T05:04:48.464Z,2.27
2018-01-04T05:07:14.653Z,2.57
2018-01-04T05:09:40.833Z,2.20
2018-01-04T05:12:07.020Z,2.33
2018-01-04T05:14:33.234Z,3.10
2018-01-04T05:16:59.445Z,2.13
2018-01-04T05:19:25.672Z,2.67
2018-01-04T05:21:51.881Z,2.23
2018-01-04T05:24:18.092Z,3.03
2018-01-04T05:26:44.287Z,3.47
2018-01-04T05:29:11.216Z,3.13
2018-01-04T05:31:37.372Z,3.80
2018-01-04T05:34:04.298Z,3.57
2018-01-04T05:36:30.544Z,3.10
2018-01-04T05:38:56.728Z,3.93
2018-01-04T05:41:22.911Z,3.40
2018-01-04T05:43:50.666Z,3.57
2018-01-04T05:46:16.837Z,2.47
2018-01-04T05:48:43.764Z,3.00
2018-01-04T05:51:09.943Z,2.87
2018-01-04T05:53:36.124Z,2.43
2018-01-04T05:56:02.297Z,2.00
2018-01-04T05:58:28.493Z,2.53
2018-01-04T06:00:54.674Z,2.83
2018-01-04T06:03:21.000Z,2.70
2018-01-04T06:05:47.204Z,2.63
2018-01-04T06:08:14.124Z,2.70
2018-01-04T06:10:40.284Z,3.03
2018-01-04T06:13:06.492Z,2.60
2018-01-04T06:15:32.672Z,2.33
2018-01-04T06:17:59.576Z,2.30
2018-01-04T06:20:25.768Z,1.83
2018-01-04T06:22:51.964Z,2.27
2018-01-04T06:25:18.896Z,2.40
2018-01-04T06:27:45.088Z,2.40
2018-01-04T06:30:11.284Z,2.10
2018-01-04T06:32:38.224Z,2.17
2018-01-04T06:35:05.175Z,3.10
2018-01-04T06:37:31.378Z,2.47
2018-01-04T06:39:57.551Z,3.17
2018-01-04T06:42:23.729Z,2.60
2018-01-04T06:44:49.888Z,3.27
2018-01-04T06:47:16.083Z,2.67
2018-01-04T06:49:43.023Z,3.53
2018-01-04T06:52:09.927Z,3.27
2018-01-04T06:54:36.122Z,2.97
2018-01-04T06:57:02.312Z,3.10
2018-01-04T06:59:28.480Z,4.40
2018-01-04T07:01:55.664Z,3.83
2018-01-04T07:04:21.996Z,3.30
2018-01-04T07:06:48.192Z,2.73
2018-01-04T07:09:15.108Z,3.40
2018-01-04T07:11:41.316Z,3.27
2018-01-04T07:14:07.513Z,4.87
2018-01-04T07:16:34.432Z,2.47
2018-01-04T07:19:00.648Z,2.90
2018-01-04T07:21:26.852Z,2.97
2018-01-04T07:23:53.769Z,2.60
2018-01-04T07:26:20.724Z,2.50
2018-01-04T07:28:47.652Z,8.40
2018-01-04T07:31:13.828Z,3.10
2018-01-04T07:33:40.817Z,2.60
2018-01-04T07:36:07.008Z,2.87
2018-01-04T07:38:33.925Z,3.53
2018-01-04T07:41:00.123Z,3.07
2018-01-04T07:43:26.320Z,3.50
2018-01-04T07:45:53.251Z,3.33
2018-01-04T07:48:19.444Z,3.50
2018-01-04T07:50:45.615Z,3.90
2018-01-04T07:53:11.804Z,4.00
2018-01-04T07:55:38.725Z,3.77
2018-01-04T07:58:05.644Z,3.37
2018-01-04T08:00:31.824Z,4.20
2018-01-04T08:02:58.024Z,3.53
2018-01-04T08:05:24.332Z,4.20
2018-01-04T08:07:50.524Z,3.80
2018-01-04T08:10:16.748Z,4.20
2018-01-04T08:12:42.960Z,3.67
2018-01-04T08:15:09.124Z,3.43
2018-01-04T08:17:35.317Z,3.53
2018-01-04T08:20:01.494Z,3.40
2018-01-04T08:22:27.688Z,4.60
2018-01-04T08:24:53.879Z,3.87
2018-01-04T08:27:20.060Z,3.17
2018-01-04T08:29:46.223Z,2.90
2018-01-04T08:32:13.165Z,3.60
2018-01-04T08:34:40.120Z,4.00
2018-01-04T08:37:07.048Z,3.37
2018-01-04T08:39:33.288Z,2.53
2018-01-04T08:42:00.202Z,3.03
2018-01-04T08:44:26.420Z,2.40
2018-01-04T08:46:53.057Z,3.13
2018-01-04T08:49:19.239Z,3.30
2018-01-04T08:51:45.453Z,3.73
2018-01-04T08:54:11.612Z,2.47
2018-01-04T08:56:37.820Z,2.40
2018-01-04T08:59:03.979Z,2.10
2018-01-04T09:01:30.160Z,2.00
2018-01-04T09:03:56.344Z,2.00
2018-01-04T09:06:22.597Z,1.77
2018-01-04T09:08:48.830Z,1.90
2018-01-04T09:11:15.744Z,1.83
2018-01-04T09:13:41.914Z,1.70
2018-01-04T09:16:08.844Z,1.83
2018-01-04T09:18:35.024Z,2.77
2018-01-04T09:21:01.204Z,2.30
2018-01-04T09:23:27.404Z,2.77
2018-01-04T09:25:53.580Z,2.00
2018-01-04T09:28:19.779Z,2.00
2018-01-04T09:30:46.015Z,2.27
2018-01-04T09:33:12.185Z,1.47
2018-01-04T09:35:38.407Z,4.00
2018-01-04T09:38:04.584Z,2.67
2018-01-04T09:40:30.776Z,2.60
2018-01-04T09:42:56.944Z,2.13
2018-01-04T09:45:23.877Z,2.00
2018-01-04T09:47:50.069Z,1.80
2018-01-04T09:50:16.280Z,2.13
2018-01-04T09:52:42.476Z,2.80
2018-01-04T09:55:08.644Z,3.77
2018-01-04T09:57:34.864Z,2.63
2018-01-04T10:00:01.811Z,6.57
2018-01-04T10:02:28.784Z,4.07
2018-01-04T10:04:55.016Z,3.00
2018-01-04T10:07:21.286Z,4.57
2018-01-04T10:09:47.484Z,5.00
2018-01-04T10:12:13.668Z,6.90
2018-01-04T10:14:40.628Z,4.93
2018-01-04T10:17:06.903Z,6.77
2018-01-04T10:19:33.148Z,6.60
2018-01-04T10:21:59.335Z,8.07
2018-01-04T10:24:25.538Z,6.10
2018-01-04T10:26:51.728Z,8.00
2018-01-04T10:29:18.721Z,7.07
2018-01-04T10:31:44.912Z,8.97
2018-01-04T10:34:11.836Z,7.67
2018-01-04T10:36:37.997Z,8.10
2018-01-04T10:39:04.920Z,9.47
2018-01-04T10:41:31.107Z,8.00
2018-01-04T10:43:57.312Z,8.67
2018-01-04T10:46:23.500Z,8.20
2018-01-04T10:48:49.681Z,5.73
2018-01-04T10:51:16.603Z,6.47
2018-01-04T10:53:42.792Z,7.40
2018-01-04T10:56:08.960Z,6.83
2018-01-04T10:58:35.200Z,8.07
2018-01-04T11:01:01.374Z,7.43
2018-01-04T11:03:28.354Z,6.43
2018-01-04T11:05:55.240Z,6.70
2018-01-04T11:08:21.501Z,8.40
2018-01-04T11:10:47.697Z,7.00
2018-01-04T11:13:13.917Z,6.53
2018-01-04T11:15:40.131Z,6.70
2018-01-04T11:18:06.297Z,7.23
2018-01-04T11:20:32.536Z,6.90
2018-01-04T11:22:58.714Z,8.30
2018-01-04T11:25:24.904Z,7.70
2018-01-04T11:27:52.597Z,8.13
2018-01-04T11:30:19.520Z,8.23
2018-01-04T11:32:45.712Z,6.70
2018-01-04T11:35:11.901Z,7.90
2018-01-04T11:37:38.112Z,8.00
2018-01-04T11:40:04.332Z,8.00
2018-01-04T11:42:30.596Z,6.93
2018-01-04T11:44:56.788Z,7.17
2018-01-04T11:47:22.960Z,7.40
2018-01-04T11:49:49.157Z,7.60
2018-01-04T11:52:15.572Z,8.27
2018-01-04T11:54:41.775Z,9.57
2018-01-04T11:57:08.743Z,8.10
2018-01-04T11:59:35.656Z,9.37
2018-01-04T12:02:01.822Z,8.90
2018-01-04T12:04:27.995Z,7.00
2018-01-04T12:06:54.177Z,7.90
2018-01-04T12:09:21.199Z,8.60
2018-01-04T12:11:47.416Z,6.90
2018-01-04T12:14:13.640Z,9.07
2018-01-04T12:16:39.824Z,9.70
2018-01-04T12:19:06.812Z,8.10
2018-01-04T12:21:33.732Z,8.10
2018-01-04T12:24:00.680Z,9.40
2018-01-04T12:26:26.891Z,7.90
2018-01-04T12:28:53.093Z,8.20
2018-01-04T12:31:19.332Z,12.93
2018-01-04T12:33:45.542Z,8.50
2018-01-04T12:36:12.472Z,9.00
2018-01-04T12:38:39.408Z,8.00
2018-01-04T12:41:05.625Z,9.40
2018-01-04T12:43:31.813Z,9.67
2018-01-04T12:45:58.028Z,8.33
2018-01-04T12:48:24.220Z,8.40
2018-01-04T12:50:50.398Z,8.40
2018-01-04T12:53:16.598Z,11.53
2018-01-04T12:55:42.796Z,8.83
2018-01-04T12:58:09.021Z,9.53
2018-01-04T13:00:35.212Z,8.73
2018-01-04T13:03:01.385Z,9.60
2018-01-04T13:05:27.624Z,10.33
2018-01-04T13:07:54.536Z,8.23
2018-01-04T13:10:20.789Z,8.60
2018-01-04T13:12:47.752Z,10.17
2018-01-04T13:15:14.672Z,9.67
2018-01-04T13:17:41.620Z,8.60
2018-01-04T13:20:07.828Z,9.97
2018-01-04T13:22:34.033Z,7.90
2018-01-04T13:25:00.240Z,7.20
2018-01-04T13:27:26.428Z,8.60
2018-01-04T13:29:52.632Z,8.57
2018-01-04T13:32:18.840Z,9.40
2018-01-04T13:34:45.009Z,7.80
2018-01-04T13:37:11.191Z,9.20
2018-01-04T13:39:37.404Z,7.73
2018-01-04T13:42:03.609Z,8.03
2018-01-04T13:44:29.803Z,8.53
2018-01-04T13:46:56.775Z,10.13
2018-01-04T13:49:23.728Z,9.07
2018-01-04T13:51:50.648Z,8.97
2018-01-04T13:54:16.876Z,7.37
2018-01-04T13:56:43.085Z,8.67
2018-01-04T13:59:09.256Z,7.40
2018-01-04T14:01:37.786Z,9.20
2018-01-04T14:04:06.583Z,9.77
2018-01-04T14:06:33.200Z,9.80
2018-01-04T14:09:00.127Z,8.23
2018-01-04T14:11:26.518Z,9.73
2018-01-04T14:13:52.751Z,10.30
2018-01-04T14:16:18.970Z,8.67
2018-01-04T14:18:45.144Z,11.07
2018-01-04T14:21:11.304Z,9.70
2018-01-04T14:23:38.302Z,11.67
2018-01-04T14:26:05.198Z,9.90
2018-01-04T14:28:32.856Z,10.57
2018-01-04T14:30:59.904Z,11.07
2018-01-04T14:33:26.129Z,10.07
2018-01-04T14:35:52.296Z,9.83
2018-01-04T14:38:20.139Z,12.60
2018-01-04T14:40:46.352Z,10.13
2018-01-04T14:43:12.548Z,10.83
2018-01-04T14:45:39.495Z,11.10
2018-01-04T14:48:06.424Z,11.37
2018-01-04T14:50:33.393Z,11.23
2018-01-04T14:53:00.348Z,11.03
2018-01-04T14:55:26.531Z,12.60
2018-01-04T14:57:52.842Z,12.43
2018-01-04T15:00:19.084Z,13.23
2018-01-04T15:02:45.264Z,13.00
2018-01-04T15:05:11.529Z,10.93
2018-01-04T15:07:38.476Z,12.10
2018-01-04T15:10:05.397Z,12.73
2018-01-04T15:12:31.640Z,11.30
2018-01-04T15:14:58.599Z,12.20
2018-01-04T15:17:25.540Z,12.50
2018-01-04T15:19:51.703Z,13.10
2018-01-04T15:22:17.927Z,13.67
2018-01-04T15:24:45.553Z,13.03
2018-01-04T15:27:13.499Z,11.97
2018-01-04T15:29:41.404Z,14.53
2018-01-04T15:32:10.577Z,12.47
2018-01-04T15:34:39.980Z,13.77
2018-01-04T15:37:09.354Z,13.93
2018-01-04T15:39:37.090Z,15.77
2018-01-04T15:42:03.870Z,14.30
2018-01-04T15:44:30.872Z,15.97
2018-01-04T15:46:57.061Z,13.77
2018-01-04T15:49:23.988Z,14.97
2018-01-04T15:51:50.230Z,17.13
2018-01-04T15:54:16.433Z,13.90
2018-01-04T15:56:43.637Z,14.33
2018-01-04T15:59:12.703Z,12.30
2018-01-04T16:01:41.117Z,13.20
2018-01-04T16:04:09.639Z,13.93
2018-01-04T16:06:38.617Z,15.07
2018-01-04T16:09:07.188Z,13.87
2018-01-04T16:11:37.123Z,12.40
2018-01-04T16:14:06.666Z,10.40
2018-01-04T16:16:36.122Z,11.27
2018-01-04T16:19:05.431Z,11.10
2018-01-04T16:21:34.121Z,10.27
2018-01-04T16:24:02.299Z,11.53
2018-01-04T16:26:30.303Z,12.63
2018-01-04T16:28:58.660Z,13.00
2018-01-04T16:31:28.167Z,14.27
2018-01-04T16:33:57.273Z,16.53
2018-01-04T16:36:25.529Z,15.40
2018-01-04T16:38:53.113Z,13.30
2018-01-04T16:41:22.622Z,13.70
2018-01-04T16:43:52.680Z,14.67
2018-01-04T16:46:21.472Z,13.67
2018-01-04T16:48:50.234Z,16.43
2018-01-04T16:51:18.832Z,14.53
2018-01-04T16:53:47.531Z,14.37
2018-01-04T16:56:16.099Z,14.40
2018-01-04T16:58:45.694Z,15.17
2018-01-04T17:01:14.451Z,16.60
2018-01-04T17:03:43.019Z,13.67
2018-01-04T17:06:12.528Z,14.00
2018-01-04T17:08:40.803Z,16.63
2018-01-04T17:11:09.294Z,15.03
2018-01-04T17:13:39.214Z,14.40
2018-01-04T17:16:07.841Z,14.90
2018-01-04T17:18:35.764Z,14.97
2018-01-04T17:21:04.232Z,15.77
2018-01-04T17:23:33.808Z,18.43
2018-01-04T17:26:00.561Z,16.10
2018-01-04T17:28:26.780Z,16.23
2018-01-04T17:30:52.992Z,16.20
2018-01-04T17:33:19.159Z,15.40
2018-01-04T17:35:45.393Z,16.63
2018-01-04T17:38:11.572Z,15.80
2018-01-04T17:40:37.762Z,15.47
2018-01-04T17:43:04.028Z,17.13
2018-01-04T17:45:30.968Z,19.10
2018-01-04T17:47:57.131Z,18.97
2018-01-04T17:50:24.099Z,17.60
2018-01-04T17:52:51.044Z,18.30
2018-01-04T17:55:17.243Z,19.23
2018-01-04T17:57:43.572Z,19.80
2018-01-04T18:00:09.773Z,17.27
2018-01-04T18:02:35.981Z,16.67
2018-01-04T18:05:02.456Z,16.00
2018-01-04T18:07:28.644Z,17.23
2018-01-04T18:09:54.829Z,17.27
2018-01-04T18:12:22.601Z,16.43
2018-01-04T18:14:49.544Z,16.57
2018-01-04T18:17:15.809Z,18.40
2018-01-04T18:19:42.785Z,17.80
2018-01-04T18:22:08.956Z,19.80
2018-01-04T18:24:35.146Z,16.70
2018-01-04T18:27:01.344Z,15.50
2018-01-04T18:29:27.550Z,17.33
2018-01-04T18:31:53.801Z,18.77
2018-01-04T18:34:20.018Z,14.87
2018-01-04T18:36:46.249Z,15.80
2018-01-04T18:39:12.453Z,15.07
2018-01-04T18:41:38.723Z,14.60
2018-01-04T18:44:04.893Z,15.40
2018-01-04T18:46:31.095Z,13.50
2018-01-04T18:48:57.294Z,14.50
2018-01-04T18:51:23.506Z,12.60
2018-01-04T18:53:50.432Z,15.03
2018-01-04T18:56:16.692Z,13.77
2018-01-04T18:58:43.604Z,15.30
2018-01-04T19:01:09.780Z,17.47
2018-01-04T19:03:36.744Z,15.97
2018-01-04T19:06:02.944Z,14.37
2018-01-04T19:08:29.117Z,14.80
2018-01-04T19:10:55.320Z,15.60
2018-01-04T19:13:21.497Z,15.10
2018-01-04T19:15:47.723Z,17.70
2018-01-04T19:18:14.192Z,16.60
2018-01-04T19:20:40.392Z,15.20
2018-01-04T19:23:06.582Z,15.37
2018-01-04T19:25:32.764Z,15.23
2018-01-04T19:27:58.938Z,13.17
2018-01-04T19:30:25.112Z,13.20
2018-01-04T19:32:51.346Z,14.23
2018-01-04T19:35:18.297Z,14.50
2018-01-04T19:37:44.488Z,15.33
2018-01-04T19:40:10.721Z,17.43
2018-01-04T19:42:36.905Z,16.53
2018-01-04T19:45:03.145Z,15.67
2018-01-04T19:47:29.345Z,14.70
2018-01-04T19:49:55.528Z,16.80
2018-01-04T19:52:21.764Z,14.37
2018-01-04T19:54:48.775Z,15.73
2018-01-04T19:57:14.965Z,15.00
2018-01-04T19:59:41.156Z,15.30
2018-01-04T20:02:08.100Z,16.77
2018-01-04T20:04:35.012Z,15.90
2018-01-04T20:07:01.207Z,15.50
2018-01-04T20:09:27.434Z,15.03
2018-01-04T20:11:53.640Z,15.07
2018-01-04T20:14:19.841Z,14.93
2018-01-04T20:16:46.184Z,14.80
2018-01-04T20:19:12.439Z,15.10
2018-01-04T20:21:39.420Z,13.93
2018-01-04T20:24:06.376Z,13.63
2018-01-04T20:26:32.568Z,15.47
2018-01-04T20:28:58.776Z,13.00
2018-01-04T20:31:24.997Z,14.57
2018-01-04T20:33:51.173Z,11.47
2018-01-04T20:36:17.376Z,11.80
2018-01-04T20:38:43.571Z,12.90
2018-01-04T20:41:10.512Z,10.97
2018-01-04T20:43:37.458Z,11.67
2018-01-04T20:46:04.394Z,12.33
2018-01-04T20:48:30.584Z,12.00
2018-01-04T20:50:56.809Z,12.97
2018-01-04T20:53:23.040Z,11.00
2018-01-04T20:55:49.219Z,10.97
2018-01-04T20:58:15.396Z,13.50
2018-01-04T21:00:42.324Z,10.90
2018-01-04T21:03:09.259Z,10.80
2018-01-04T21:05:35.476Z,11.43
2018-01-04T21:08:01.712Z,11.70
2018-01-04T21:10:27.916Z,10.90
2018-01-04T21:12:54.093Z,11.77
2018-01-04T21:15:20.304Z,13.33
2018-01-04T21:17:46.483Z,12.30
2018-01-04T21:20:12.720Z,12.23
2018-01-04T21:22:39.694Z,11.80
2018-01-04T21:25:06.605Z,12.20
2018-01-04T21:27:32.780Z,10.90
2018-01-04T21:29:58.992Z,12.67
2018-01-04T21:32:25.904Z,11.87
2018-01-04T21:34:52.076Z,11.73
2018-01-04T21:37:19.028Z,11.67
2018-01-04T21:39:45.975Z,11.20
2018-01-04T21:42:12.187Z,13.00
2018-01-04T21:44:38.417Z,11.10
2018-01-04T21:47:04.602Z,12.13
2018-01-04T21:49:30.812Z,12.67
2018-01-04T21:51:57.048Z,12.37
2018-01-04T21:54:24.000Z,12.03
2018-01-04T21:56:50.928Z,11.57
2018-01-04T21:59:17.145Z,12.40
2018-01-04T22:01:43.352Z,12.80
2018-01-04T22:04:09.548Z,11.77
2018-01-04T22:06:35.778Z,11.10
2018-01-04T22:09:02.731Z,10.93
2018-01-04T22:11:29.685Z,10.63
2018-01-04T22:13:56.612Z,11.10
2018-01-04T22:16:22.821Z,10.47
2018-01-04T22:18:49.004Z,10.90
2018-01-04T22:21:17.034Z,10.30
2018-01-04T22:23:45.266Z,11.20
2018-01-04T22:26:13.655Z,12.57
2018-01-04T22:28:43.619Z,10.80
2018-01-04T22:31:11.100Z,10.60
2018-01-04T22:33:38.055Z,12.43
2018-01-04T22:36:05.036Z,10.90
2018-01-04T22:38:31.218Z,12.50
2018-01-04T22:40:57.411Z,13.73
2018-01-04T22:43:24.330Z,13.60
2018-01-04T22:45:50.517Z,15.97
2018-01-04T22:48:16.724Z,15.80
2018-01-04T22:50:43.647Z,15.27
2018-01-04T22:53:09.835Z,14.03
2018-01-04T22:55:36.009Z,14.60
2018-01-04T22:58:02.232Z,14.97
2018-01-04T23:00:28.391Z,15.30
2018-01-04T23:02:54.550Z,15.77
2018-01-04T23:05:21.469Z,16.53
2018-01-04T23:07:48.428Z,14.10
2018-01-04T23:10:15.352Z,12.77
2018-01-04T23:12:41.569Z,14.40
2018-01-04T23:15:07.796Z,14.33
2018-01-04T23:17:33.996Z,14.00
2018-01-04T23:20:00.917Z,15.20
2018-01-04T23:22:28.682Z,14.93
2018-01-04T23:24:54.884Z,13.87
2018-01-04T23:27:21.963Z,13.90
2018-01-04T23:29:48.184Z,14.73
2018-01-04T23:32:14.355Z,14.00
2018-01-04T23:34:40.570Z,12.70
2018-01-04T23:37:06.781Z,11.03
2018-01-04T23:39:32.953Z,11.50
2018-01-04T23:41:59.940Z,10.63
2018-01-04T23:44:26.881Z,9.13
2018-01-04T23:46:53.084Z,10.07
2018-01-04T23:49:19.264Z,8.70
2018-01-04T23:51:45.443Z,8.73
2018-01-04T23:54:11.633Z,6.97
2018-01-04T23:56:38.682Z,6.30
2018-01-04T23:59:04.929Z,6.17
